Terminal Aerodrome Forecast
Issued by NWS

Home | Current Version | Previous Version | Graphics & Text | Print | Product List | Glossary On
Versions: 1 2 3 4 5 6 7 8 9 10 11 12
000
FTUS45 KGGW 191100
TAFSDY
TAF
KSDY 191134Z 1912/2012 VRB04KT 6SM BR FEW100
     FM191500 19007KT P6SM FEW090
     FM200300 VRB06KT P6SM SCT050 BKN250
      AMD LTD TO CLD VIS AND WIND=

USA.gov is the U.S. government's official web portal to all federal, state and local government web resources and services.